Time;durP1;ratioP1;P1;durP2;ratioP2;P2;SDS_P1;SDS_P2;PMS_P1;PMS_P2;Temp;Humidity;BMP_temperature;BMP_pressure;BME280_temperature;BME280_humidity;BME280_pressure;Samples;Min_cycle;Max_cycle;Signal;HPM_P1;HPM_P2
2022/08/13 00:02:17;;;;;;;6.28;2.80;;;;;;;;;;4772535;29;20083;-82
2022/08/13 00:08:04;;;;;;;3.13;2.38;;;;;;;;;;4770929;29;20062;-81
2022/08/13 00:10:40;;;;;;;5.07;2.40;;;;;;;;;;4802960;29;20043;-82
2022/08/13 00:13:08;;;;;;;4.72;2.60;;;;;;;;;;4816670;29;20047;-81
2022/08/13 00:15:35;;;;;;;5.32;2.47;;;;;;;;;;4792276;29;20059;-79
2022/08/13 00:18:09;;;;;;;2.90;2.13;;;;;;;;;;4814419;29;20047;-80
2022/08/13 00:20:38;;;;;;;4.38;2.70;;;;;;;;;;4795216;29;20047;-82
2022/08/13 00:23:08;;;;;;;3.33;2.80;;;;;;;;;;4794695;29;20115;-80
2022/08/13 00:25:38;;;;;;;6.88;3.05;;;;;;;;;;4784815;29;20127;-82
2022/08/13 00:28:11;;;;;;;6.53;3.00;;;;;;;;;;4773791;29;20051;-80
2022/08/13 00:30:38;;;;;;;5.75;2.78;;;;;;;;;;4789462;29;20066;-80
2022/08/13 00:33:19;;;;;;;7.75;2.75;;;;;;;;;;4792470;29;20126;-81
2022/08/13 00:35:52;;;;;;;7.85;3.30;;;;;;;;;;4796893;29;20492;-80
2022/08/13 00:38:38;;;;;;;6.45;3.15;;;;;;;;;;4783510;29;20041;-80
2022/08/13 00:41:13;;;;;;;3.03;2.70;;;;;;;;;;4801519;29;20058;-80
2022/08/13 00:43:45;;;;;;;3.72;2.90;;;;;;;;;;4801587;29;20544;-79
2022/08/13 00:46:13;;;;;;;5.45;3.25;;;;;;;;;;4785768;29;20146;-80
2022/08/13 00:48:42;;;;;;;5.13;2.88;;;;;;;;;;4798808;29;20565;-81
2022/08/13 00:51:09;;;;;;;5.45;2.90;;;;;;;;;;4801136;29;20523;-79
2022/08/13 00:53:48;;;;;;;5.20;3.17;;;;;;;;;;4797937;29;20043;-81
2022/08/13 00:56:14;;;;;;;7.53;2.88;;;;;;;;;;4799517;29;20058;-81
2022/08/13 00:58:41;;;;;;;3.53;3.22;;;;;;;;;;4783508;29;20047;-80
2022/08/13 01:01:08;;;;;;;7.03;3.88;;;;;;;;;;4782393;29;20055;-81
2022/08/13 01:03:36;;;;;;;5.75;3.20;;;;;;;;;;4783341;29;20556;-80
2022/08/13 01:06:04;;;;;;;7.20;3.70;;;;;;;;;;4799074;29;20203;-82
2022/08/13 01:08:40;;;;;;;4.10;3.40;;;;;;;;;;4776773;29;20135;-83
2022/08/13 01:11:13;;;;;;;6.70;3.50;;;;;;;;;;4784869;29;20055;-81
2022/08/13 01:13:40;;;;;;;7.15;3.40;;;;;;;;;;4798433;29;20129;-84
2022/08/13 01:16:13;;;;;;;4.90;3.60;;;;;;;;;;4798045;29;20055;-84
2022/08/13 01:18:42;;;;;;;9.15;4.00;;;;;;;;;;4799551;29;20059;-78
2022/08/13 01:21:19;;;;;;;5.07;3.58;;;;;;;;;;4790790;29;20420;-82
2022/08/13 01:23:46;;;;;;;5.78;3.67;;;;;;;;;;4796588;29;20050;-81
2022/08/13 01:26:22;;;;;;;7.68;4.18;;;;;;;;;;4798664;29;20130;-82
2022/08/13 01:29:08;;;;;;;9.82;4.03;;;;;;;;;;4815340;29;20092;-81
2022/08/13 01:31:44;;;;;;;5.60;3.60;;;;;;;;;;4801735;29;20051;-83
2022/08/13 01:34:10;;;;;;;6.05;3.58;;;;;;;;;;4787333;29;20066;-81
2022/08/13 01:36:37;;;;;;;14.32;3.60;;;;;;;;;;4796771;29;20408;-81
2022/08/13 01:39:07;;;;;;;7.25;4.10;;;;;;;;;;4806290;29;20103;-81
2022/08/13 01:41:34;;;;;;;10.88;3.70;;;;;;;;;;4792427;29;20497;-81
2022/08/13 01:44:19;;;;;;;6.97;4.35;;;;;;;;;;4802291;29;20054;-81
2022/08/13 01:52:16;;;;;;;6.50;3.67;;;;;;;;;;4810453;29;20081;-83
2022/08/13 01:54:44;;;;;;;5.95;3.45;;;;;;;;;;4789550;29;20046;-82
2022/08/13 01:57:21;;;;;;;6.78;3.50;;;;;;;;;;4791392;29;20059;-82
2022/08/13 01:59:53;;;;;;;6.60;3.60;;;;;;;;;;4806932;29;20055;-81
2022/08/13 02:02:25;;;;;;;8.23;3.42;;;;;;;;;;4802342;29;20090;-80
2022/08/13 02:04:52;;;;;;;7.75;3.60;;;;;;;;;;4803452;29;20073;-82
2022/08/13 02:07:27;;;;;;;8.35;4.38;;;;;;;;;;4803134;29;20050;-82
2022/08/13 02:09:53;;;;;;;4.50;3.70;;;;;;;;;;4781123;29;20133;-80
2022/08/13 02:12:20;;;;;;;4.47;3.95;;;;;;;;;;4787967;29;21601;-81
2022/08/13 02:14:46;;;;;;;5.38;4.10;;;;;;;;;;4774595;29;20518;-80
2022/08/13 02:17:27;;;;;;;8.85;3.88;;;;;;;;;;4786464;29;20063;-81
2022/08/13 02:19:56;;;;;;;7.72;4.40;;;;;;;;;;4790518;29;20054;-79
2022/08/13 02:22:24;;;;;;;8.02;4.65;;;;;;;;;;4774962;29;20079;-80
2022/08/13 02:25:01;;;;;;;15.80;4.18;;;;;;;;;;4801316;29;20043;-80
2022/08/13 02:27:27;;;;;;;7.65;4.20;;;;;;;;;;4801964;29;20158;-81
2022/08/13 02:29:56;;;;;;;7.07;3.75;;;;;;;;;;4802102;29;20501;-80
2022/08/13 02:32:23;;;;;;;9.88;4.47;;;;;;;;;;4801946;29;20034;-82
2022/08/13 02:34:50;;;;;;;6.85;4.00;;;;;;;;;;4805194;29;20046;-82
2022/08/13 02:37:21;;;;;;;8.00;3.90;;;;;;;;;;4804535;29;20088;-81
2022/08/13 02:39:51;;;;;;;4.75;3.58;;;;;;;;;;4803217;29;20063;-81
2022/08/13 02:42:18;;;;;;;6.35;4.07;;;;;;;;;;4797811;29;20130;-81
2022/08/13 02:44:49;;;;;;;6.45;4.13;;;;;;;;;;4822459;29;20104;-81
2022/08/13 02:47:23;;;;;;;7.68;3.83;;;;;;;;;;4819860;29;20060;-82
2022/08/13 02:49:52;;;;;;;8.13;4.25;;;;;;;;;;4802955;29;20050;-80
2022/08/13 02:52:20;;;;;;;6.18;3.53;;;;;;;;;;4821643;29;20455;-80
2022/08/13 02:54:47;;;;;;;9.68;4.28;;;;;;;;;;4820168;29;20050;-82
2022/08/13 02:57:26;;;;;;;11.35;4.07;;;;;;;;;;4821493;29;20080;-82
2022/08/13 02:59:52;;;;;;;9.73;3.95;;;;;;;;;;4809791;29;20516;-81
2022/08/13 03:02:22;;;;;;;13.40;4.32;;;;;;;;;;4813849;29;20061;-82
2022/08/13 03:04:49;;;;;;;5.18;4.03;;;;;;;;;;4823243;29;20050;-79
2022/08/13 03:07:16;;;;;;;8.02;4.30;;;;;;;;;;4818913;29;20109;-79
2022/08/13 03:09:42;;;;;;;12.35;4.20;;;;;;;;;;4802064;29;20049;-81
2022/08/13 03:12:09;;;;;;;7.70;3.92;;;;;;;;;;4817766;29;20066;-81
2022/08/13 03:14:38;;;;;;;5.53;3.90;;;;;;;;;;4817870;29;20047;-83
2022/08/13 03:17:04;;;;;;;7.10;3.83;;;;;;;;;;4787438;29;20050;-81
2022/08/13 03:19:30;;;;;;;7.40;3.60;;;;;;;;;;4819259;29;20077;-81
2022/08/13 03:21:57;;;;;;;5.90;3.90;;;;;;;;;;4802319;29;20052;-82
2022/08/13 03:24:23;;;;;;;4.07;3.67;;;;;;;;;;4816509;29;20050;-82
2022/08/13 03:26:49;;;;;;;7.70;4.32;;;;;;;;;;4815477;29;20167;-81
2022/08/13 03:29:17;;;;;;;6.00;4.60;;;;;;;;;;4797346;29;20107;-83
2022/08/13 03:31:50;;;;;;;8.15;4.22;;;;;;;;;;4811018;29;20069;-82
2022/08/13 03:34:17;;;;;;;5.15;4.05;;;;;;;;;;4782789;29;20062;-81
2022/08/13 03:36:44;;;;;;;4.43;4.00;;;;;;;;;;4757690;29;20146;-81
2022/08/13 03:39:10;;;;;;;6.40;3.90;;;;;;;;;;4775202;29;20712;-82
2022/08/13 03:42:27;;;;;;;8.45;4.28;;;20.40;99.90;;;;;;4766321;29;20067;-81
2022/08/13 03:45:02;;;;;;;6.53;4.00;;;;;;;;;;4748554;30;20056;-81
2022/08/13 03:47:28;;;;;;;7.75;4.00;;;;;;;;;;4763500;30;20038;-79
2022/08/13 03:53:12;;;;;;;4.53;3.83;;;;;;;;;;4727688;30;20642;-81
2022/08/13 03:55:39;;;;;;;10.02;4.78;;;;;;;;;;4726568;30;20053;-80
2022/08/13 03:58:09;;;;;;;5.53;4.05;;;;;;;;;;4709321;30;20044;-79
2022/08/13 04:00:37;;;;;;;6.68;3.75;;;;;;;;;;4716558;30;20052;-82
2022/08/13 04:03:16;;;;;;;7.53;3.63;;;;;;;;;;4749499;30;20051;-79
2022/08/13 04:05:50;;;;;;;6.40;3.70;;;;;;;;;;4778805;29;20928;-80
2022/08/13 04:08:17;;;;;;;6.63;4.20;;;;;;;;;;4780258;29;20051;-80
2022/08/13 04:10:52;;;;;;;4.47;3.67;;;;;;;;;;4782766;29;20136;-80
2022/08/13 04:13:19;;;;;;;5.95;3.97;;;;;;;;;;4791407;29;20519;-80
2022/08/13 04:15:45;;;;;;;4.03;3.33;;;;;;;;;;4791453;29;20486;-79
2022/08/13 04:18:15;;;;;;;7.50;4.22;;;;;;;;;;4771696;29;20047;-81
2022/08/13 04:20:41;;;;;;;5.45;3.30;;;;;;;;;;4786627;29;20114;-80
2022/08/13 04:23:14;;;;;;;4.50;3.35;;;;;;;;;;4766898;29;20043;-81
2022/08/13 04:25:41;;;;;;;8.10;3.70;;;;;;;;;;4776156;29;20047;-81
2022/08/13 04:28:07;;;;;;;6.82;3.65;;;;;;;;;;4772300;29;20053;-81
2022/08/13 04:30:38;;;;;;;7.22;3.78;;;;;;;;;;4767463;29;20104;-79
2022/08/13 04:33:04;;;;;;;12.32;4.10;;;;;;;;;;4773872;29;20410;-80
2022/08/13 04:35:30;;;;;;;11.60;3.88;;;;;;;;;;4767412;29;20039;-80
2022/08/13 04:38:06;;;;;;;4.72;3.33;;;;;;;;;;4773890;29;20063;-79
2022/08/13 04:40:36;;;;;;;5.20;3.70;;;;;;;;;;4774401;29;20150;-81
2022/08/13 04:43:10;;;;;;;6.15;3.58;;;;;;;;;;4824026;29;20057;-81
2022/08/13 04:45:36;;;;;;;9.30;4.28;;;;;;;;;;4799592;29;20153;-80
2022/08/13 04:48:13;;;;;;;6.82;4.18;;;;;;;;;;4803352;29;20074;-80
2022/08/13 04:50:40;;;;;;;8.80;3.95;;;;;;;;;;4810967;29;20051;-80
2022/08/13 04:53:08;;;;;;;5.95;3.20;;;;;;;;;;4790555;29;20046;-80
2022/08/13 04:55:35;;;;;;;7.47;4.13;;;;;;;;;;4806629;29;20098;-80
2022/08/13 04:58:02;;;;;;;6.65;3.90;;;;;;;;;;4806065;29;20051;-79
2022/08/13 05:00:32;;;;;;;5.90;3.47;;;;;;;;;;4790164;29;20080;-79
2022/08/13 05:03:18;;;;;;;4.55;3.38;;;;;;;;;;4794306;29;20564;-81
2022/08/13 05:05:47;;;;;;;7.82;3.72;;;;;;;;;;4813803;29;20047;-79
2022/08/13 05:08:15;;;;;;;8.75;3.10;;;;;;;;;;4789879;29;20059;-81
2022/08/13 05:10:51;;;;;;;10.02;3.97;;;;;;;;;;4811093;29;20725;-81
2022/08/13 05:13:20;;;;;;;3.95;3.53;;;;;;;;;;4809308;29;20108;-82
2022/08/13 05:15:47;;;;;;;9.43;3.58;;;;;;;;;;4807092;29;20125;-80
2022/08/13 05:18:15;;;;;;;5.47;3.88;;;;;;;;;;4815173;29;20082;-80
2022/08/13 05:20:42;;;;;;;8.52;4.03;;;;;;;;;;4820135;29;20118;-79
2022/08/13 05:23:15;;;;;;;6.22;3.40;;;;;;;;;;4812777;29;20074;-79
2022/08/13 05:25:41;;;;;;;4.25;3.78;;;;;;;;;;4812962;29;20650;-79
2022/08/13 05:28:11;;;;;;;7.85;3.33;;;;;;;;;;4821897;29;20496;-80
2022/08/13 05:30:40;;;;;;;5.05;3.33;;;;;;;;;;4814933;29;20049;-79
2022/08/13 05:33:13;;;;;;;6.88;3.33;;;;;;;;;;4813898;29;20078;-80
2022/08/13 05:35:40;;;;;;;4.32;3.90;;;;;;;;;;4810271;29;20129;-80
2022/08/13 05:38:10;;;;;;;8.98;3.72;;;;;;;;;;4809667;29;20172;-79
2022/08/13 05:40:38;;;;;;;8.35;3.28;;;;;;;;;;4810137;29;20055;-81
2022/08/13 05:43:11;;;;;;;6.60;3.60;;;;;;;;;;4807298;29;20514;-81
2022/08/13 05:45:38;;;;;;;9.15;3.10;;;;;;;;;;4808342;29;20054;-80
2022/08/13 05:48:04;;;;;;;5.28;3.85;;;;;;;;;;4803532;29;20050;-83
2022/08/13 05:50:33;;;;;;;5.10;3.75;;;;;;;;;;4817209;29;20050;-82
2022/08/13 05:53:05;;;;;;;12.13;3.55;;;;;;;;;;4804440;29;20054;-80
2022/08/13 05:55:32;;;;;;;5.43;3.85;;;;;;;;;;4792892;29;20064;-83
2022/08/13 05:57:58;;;;;;;6.85;3.55;;;;;;;;;;4821287;29;20054;-79
2022/08/13 06:06:11;;;;;;;13.27;3.65;;;;;;;;;;4762509;30;20712;-79
2022/08/13 06:08:40;;;;;;;10.55;3.75;;;;;;;;;;4799182;29;20404;-80
2022/08/13 06:11:11;;;;;;;12.50;4.20;;;;;;;;;;4816684;29;20054;-79
2022/08/13 06:13:41;;;;;;;4.25;3.53;;;;;;;;;;4819400;29;20050;-79
2022/08/13 06:16:08;;;;;;;6.53;3.85;;;;;;;;;;4804803;29;20054;-81
2022/08/13 06:18:38;;;;;;;5.50;4.00;;;;;;;;;;4824404;29;20121;-79
2022/08/13 06:21:07;;;;;;;8.25;3.60;;;;;;;;;;4816799;29;20089;-79
2022/08/13 06:23:45;;;;;;;6.07;3.83;;;;;;;;;;4806080;29;20042;-79
2022/08/13 06:26:11;;;;;;;11.32;3.75;;;;;;;;;;4819714;29;20050;-80
2022/08/13 06:28:39;;;;;;;8.45;4.20;;;;;;;;;;4827537;29;20090;-80
2022/08/13 06:31:14;;;;;;;7.78;3.63;;;;;;;;;;4803850;29;20091;-81
2022/08/13 06:33:41;;;;;;;7.80;3.70;;;;;;;;;;4803742;29;20058;-79
2022/08/13 06:36:08;;;;;;;4.38;3.53;;;;;;;;;;4818724;29;20126;-80
2022/08/13 06:38:37;;;;;;;5.57;3.85;;;;;;;;;;4815398;29;20094;-81
2022/08/13 06:41:07;;;;;;;7.18;3.47;;;;;;;;;;4809021;29;20057;-80
2022/08/13 06:43:40;;;;;;;8.52;3.55;;;;;;;;;;4827590;29;20064;-80
2022/08/13 06:46:07;;;;;;;5.97;3.40;;;;;;;;;;4795859;29;20038;-81
2022/08/13 06:48:34;;;;;;;7.75;3.70;;;;;;;;;;4793966;29;20047;-80
2022/08/13 06:51:04;;;;;;;11.88;4.00;;;;;;;;;;4818387;29;20042;-82
2022/08/13 06:53:32;;;;;;;10.80;3.05;;;;;;;;;;4819846;29;20141;-79
2022/08/13 06:55:58;;;;;;;6.18;3.85;;;;;;;;;;4802269;29;20103;-79
2022/08/13 06:58:31;;;;;;;5.72;3.40;;;;;;;;;;4818320;29;20537;-79
2022/08/13 07:00:58;;;;;;;7.70;3.40;;;;;;;;;;4820383;29;20050;-80
2022/08/13 07:03:27;;;;;;;5.45;3.53;;;;;;;;;;4790335;29;20057;-78
2022/08/13 07:05:54;;;;;;;8.30;3.80;;;;;;;;;;4800765;29;20083;-80
2022/08/13 07:08:21;;;;;;;5.90;3.63;;;;;;;;;;4812633;29;20046;-81
2022/08/13 07:10:51;;;;;;;4.68;3.30;;;;;;;;;;4821077;29;20069;-80
2022/08/13 07:13:20;;;;;;;6.18;3.22;;;;;;;;;;4805294;29;20053;-80
2022/08/13 07:15:51;;;;;;;13.93;3.35;;;;;;;;;;4819518;29;20053;-79
2022/08/13 07:18:17;;;;;;;3.55;3.15;;;;;;;;;;4815340;29;20050;-80
2022/08/13 07:20:44;;;;;;;8.07;3.28;;;;;;;;;;4805798;29;20123;-81
2022/08/13 07:23:11;;;;;;;4.88;3.10;;;;;;;;;;4818858;29;20054;-79
2022/08/13 07:25:38;;;;;;;4.05;3.15;;;;;;;;;;4817872;29;20421;-78
2022/08/13 07:28:05;;;;;;;11.00;3.42;;;;;;;;;;4818740;29;20057;-81
2022/08/13 07:30:34;;;;;;;7.28;3.38;;;;;;;;;;4804152;29;20042;-79
2022/08/13 07:33:01;;;;;;;3.58;3.00;;;;;;;;;;4798994;29;20081;-80
2022/08/13 07:35:28;;;;;;;4.00;3.08;;;;;;;;;;4810431;29;20053;-83
2022/08/13 07:37:54;;;;;;;3.88;3.00;;;;;;;;;;4811435;29;20070;-79
2022/08/13 07:40:20;;;;;;;10.25;3.45;;;;;;;;;;4798528;29;20039;-79
2022/08/13 07:42:48;;;;;;;10.80;3.20;;;;;;;;;;4813520;29;20054;-79
2022/08/13 07:45:21;;;;;;;4.25;2.65;;;;;;;;;;4795027;29;20090;-81
2022/08/13 07:47:50;;;;;;;8.35;2.92;;;;;;;;;;4793706;29;20149;-80
2022/08/13 07:50:23;;;;;;;4.90;2.80;;;;;;;;;;4792955;29;20158;-80
2022/08/13 07:52:58;;;;;;;3.55;3.08;;;;;;;;;;4803133;29;20043;-80
2022/08/13 07:55:25;;;;;;;4.82;3.45;;;;;;;;;;4817220;29;20439;-80
2022/08/13 07:57:52;;;;;;;7.80;3.05;;;;;;;;;;4808505;29;20473;-81
2022/08/13 08:00:21;;;;;;;9.90;3.10;;;;;;;;;;4805122;29;20061;-81
2022/08/13 08:02:55;;;;;;;3.58;2.80;;;;;;;;;;4804503;29;20475;-80
2022/08/13 08:05:25;;;;;;;5.57;2.72;;;;;;;;;;4803393;29;20078;-78
2022/08/13 08:07:52;;;;;;;6.32;2.78;;;;;;;;;;4814769;29;20038;-80
2022/08/13 08:10:18;;;;;;;6.38;3.35;;;;;;;;;;4817692;29;20453;-80
2022/08/13 08:12:44;;;;;;;3.45;2.58;;;;;;;;;;4807560;29;20601;-80
2022/08/13 08:15:11;;;;;;;2.97;2.63;;;;;;;;;;4811177;29;20066;-80
2022/08/13 08:17:37;;;;;;;10.23;3.17;;;;;;;;;;4801389;29;20436;-79
2022/08/13 08:20:06;;;;;;;4.97;2.67;;;;;;;;;;4816230;29;20050;-79
2022/08/13 08:22:35;;;;;;;5.90;2.75;;;;;;;;;;4807678;29;20058;-82
2022/08/13 08:25:01;;;;;;;7.82;2.50;;;;;;;;;;4801646;29;20050;-81
2022/08/13 08:27:44;;;;;;;5.95;2.40;;;;;;;;;;4805528;29;20495;-79
2022/08/13 08:30:10;;;;;;;3.03;2.30;;;;;;;;;;4817064;29;20046;-81
2022/08/13 08:32:37;;;;;;;5.93;2.20;;;;;;;;;;4801686;29;20049;-79
2022/08/13 08:35:03;;;;;;;4.88;2.33;;;;;;;;;;4818432;29;20050;-78
2022/08/13 08:43:02;;;;;;;3.42;2.20;;;;;;;;;;4822899;29;20681;-81
2022/08/13 08:45:28;;;;;;;8.57;2.10;;;;;;;;;;4813192;29;20419;-81
2022/08/13 08:47:54;;;;;;;5.55;2.03;;;;;;;;;;4802341;29;20046;-79
2022/08/13 08:50:22;;;;;;;5.13;2.00;;;;;;;;;;4798346;29;20055;-78
2022/08/13 08:53:35;;;;;;;8.50;2.42;;;;;;;;;;4804735;29;20050;-79
2022/08/13 08:55:36;;;;;;;2.80;2.30;;;;;;;;;;4785428;29;20508;-79
2022/08/13 08:58:10;;;;;;;2.30;1.92;;;;;;;;;;4797133;29;20403;-81
2022/08/13 09:00:36;;;;;;;8.38;2.03;;;;;;;;;;4814130;29;20058;-83
2022/08/13 09:03:03;;;;;;;7.13;2.10;;;;;;;;;;4817945;29;20046;-81
2022/08/13 09:05:29;;;;;;;3.55;2.42;;;;;;;;;;4815379;29;20046;-79
2022/08/13 09:07:56;;;;;;;4.28;2.08;;;;;;;;;;4812398;29;20045;-79
2022/08/13 09:10:23;;;;;;;3.65;1.88;;;;;;;;;;4796392;29;20057;-81
2022/08/13 09:12:50;;;;;;;5.05;1.95;;;;;;;;;;4809665;29;20042;-79
2022/08/13 09:15:21;;;;;;;3.78;1.80;;;;;;;;;;4812395;29;20093;-78
2022/08/13 09:17:48;;;;;;;3.28;2.10;;;;;;;;;;4816605;29;20102;-79
2022/08/13 09:20:17;;;;;;;6.55;2.10;;;;;;;;;;4815292;29;20054;-79
2022/08/13 09:22:45;;;;;;;8.02;2.00;;;;;;;;;;4810542;29;20130;-82
2022/08/13 09:25:13;;;;;;;4.28;1.67;;;;;;;;;;4798957;29;20089;-82
2022/08/13 09:27:39;;;;;;;5.78;2.15;;;;;;;;;;4814004;29;20047;-80
2022/08/13 09:30:16;;;;;;;7.32;1.90;;;;;;;;;;4817212;29;20198;-80
2022/08/13 09:32:42;;;;;;;3.72;2.20;;;;;;;;;;4807437;29;20979;-80
2022/08/13 09:35:08;;;;;;;2.35;1.50;;;;;;;;;;4817459;29;20430;-81
2022/08/13 09:37:35;;;;;;;2.85;1.90;;;;;;;;;;4800939;29;20469;-83
2022/08/13 09:40:06;;;;;;;2.22;1.90;;;;;;;;;;4814983;29;20104;-79
2022/08/13 09:42:38;;;;;;;4.57;2.00;;;;;;;;;;4803112;29;20134;-79
2022/08/13 09:45:11;;;;;;;7.82;2.10;;;;;;;;;;4819651;29;20055;-82
2022/08/13 09:47:37;;;;;;;2.90;1.50;;;;;;;;;;4804264;29;20042;-79
2022/08/13 09:50:09;;;;;;;7.80;1.60;;;;;;;;;;4800038;29;20053;-79
2022/08/13 09:52:36;;;;;;;2.67;2.00;;;;;;;;;;4815819;29;20061;-80
2022/08/13 09:55:04;;;;;;;3.55;1.48;;;;;;;;;;4811053;29;20069;-81
2022/08/13 09:57:30;;;;;;;10.05;1.55;;;;;;;;;;4813488;29;20213;-80
2022/08/13 09:59:56;;;;;;;3.83;1.35;;;;;;;;;;4818726;29;20077;-81
2022/08/13 10:02:22;;;;;;;2.45;1.35;;;;;;;;;;4811056;29;20058;-82
2022/08/13 10:04:52;;;;;;;1.90;1.40;;;;;;;;;;4813490;29;20047;-82
2022/08/13 10:07:19;;;;;;;4.65;1.38;;;;;;;;;;4813938;29;20046;-81
2022/08/13 10:09:54;;;;;;;5.80;1.70;;;;;;;;;;4819686;29;20046;-79
2022/08/13 10:12:20;;;;;;;2.20;1.10;;;;;;;;;;4812773;29;20054;-79
2022/08/13 10:14:47;;;;;;;5.57;1.00;;;;;;;;;;4805659;29;20081;-80
2022/08/13 10:17:16;;;;;;;2.67;1.10;;;;;;;;;;4805133;29;20096;-82
2022/08/13 10:19:48;;;;;;;3.50;1.05;;;;;;;;;;4807239;29;20129;-81
2022/08/13 10:22:20;;;;;;;3.72;1.15;;;;;;;;;;4809282;29;20058;-81
2022/08/13 10:24:56;;;;;;;5.03;1.00;;;;;;;;;;4811699;29;20133;-84
2022/08/13 10:27:28;;;;;;;1.98;1.10;;;;;;;;;;4800333;29;20052;-81
2022/08/13 10:29:54;;;;;;;6.60;1.50;;;;;;;;;;4816478;29;20035;-81
2022/08/13 10:32:20;;;;;;;6.15;1.40;;;;;;;;;;4814898;29;20057;-83
2022/08/13 10:34:46;;;;;;;2.50;1.48;;;;;;;;;;4816513;29;20054;-82
2022/08/13 10:37:12;;;;;;;2.17;1.17;;;;;;;;;;4814621;29;20046;-80
2022/08/13 10:39:39;;;;;;;3.30;1.00;;;;;;;;;;4806821;29;20097;-81
2022/08/13 10:42:06;;;;;;;2.47;1.08;;;;;;;;;;4814931;29;20061;-82
2022/08/13 10:44:32;;;;;;;1.30;1.17;;;;;;;;;;4810362;29;20497;-83
2022/08/13 10:47:01;;;;;;;2.78;1.33;;;;;;;;;;4802312;29;20082;-80
2022/08/13 10:49:29;;;;;;;3.92;1.23;;;;;;;;;;4816373;29;20401;-80
2022/08/13 10:51:55;;;;;;;2.58;1.10;;;;;;;;;;4791852;29;20043;-79
2022/08/13 10:54:25;;;;;;;4.53;1.30;;;;;;;;;;4805300;29;20042;-80
2022/08/13 10:56:51;;;;;;;1.27;1.05;;;;;;;;;;4804737;29;20045;-82
2022/08/13 10:59:27;;;;;;;4.28;1.40;;;;;;;;;;4813144;29;20472;-81
2022/08/13 11:02:06;;;;;;;6.00;1.30;;;;;;;;;;4820146;29;20054;-80
2022/08/13 11:04:33;;;;;;;3.55;1.27;;;;;;;;;;4820339;29;20077;-81
2022/08/13 11:07:02;;;;;;;4.50;1.50;;;;;;;;;;4817657;29;20073;-81
2022/08/13 11:09:31;;;;;;;5.13;1.40;;;;;;;;;;4816567;29;20074;-82
2022/08/13 11:11:58;;;;;;;1.33;1.20;;;;;;;;;;4803725;29;20137;-82
2022/08/13 11:14:24;;;;;;;1.55;1.23;;;;;;;;;;4813299;29;20492;-82
2022/08/13 11:17:02;;;;;;;2.92;1.25;;;;;;;;;;4827233;29;20042;-82
2022/08/13 11:19:29;;;;;;;4.05;1.13;;;;;;;;;;4816145;29;20132;-81
2022/08/13 11:21:56;;;;;;;2.95;1.15;;;;;;;;;;4789005;29;20054;-81
2022/08/13 11:24:25;;;;;;;5.00;1.25;;;;;;;;;;4794503;29;20430;-82
2022/08/13 11:26:51;;;;;;;2.92;1.65;;;;;;;;;;4812925;29;20074;-82
2022/08/13 11:29:17;;;;;;;3.05;1.73;;;;;;;;;;4816499;29;20423;-81
2022/08/13 11:31:43;;;;;;;4.10;1.42;;;;;;;;;;4794546;29;20145;-82
2022/08/13 11:34:12;;;;;;;2.75;1.33;;;;;;;;;;4820635;29;20458;-81
2022/08/13 11:36:38;;;;;;;3.97;1.20;;;;;;;;;;4813166;29;20054;-81
2022/08/13 11:39:06;;;;;;;3.42;1.60;;;;;;;;;;4811422;29;20046;-82
2022/08/13 11:41:32;;;;;;;3.33;1.42;;;;;;;;;;4821363;29;20340;-82
2022/08/13 11:43:58;;;;;;;5.60;1.30;;;;;;;;;;4803408;29;20515;-81
2022/08/13 11:46:34;;;;;;;6.55;1.20;;;;;;;;;;4800682;29;20083;-83
2022/08/13 11:49:00;;;;;;;2.70;1.45;;;;;;;;;;4799605;29;20077;-83
2022/08/13 11:51:26;;;;;;;5.07;1.10;;;;;;;;;;4807421;29;20050;-81
2022/08/13 11:53:52;;;;;;;2.28;1.08;;;;;;;;;;4808125;29;20038;-83
2022/08/13 11:56:30;;;;;;;5.32;1.30;;;;;;;;;;4823545;29;20102;-81
2022/08/13 11:58:56;;;;;;;2.05;1.10;;;;;;;;;;4791768;29;20046;-82
2022/08/13 12:01:23;;;;;;;1.45;1.10;;;;;;;;;;4796272;29;20044;-83
2022/08/13 12:03:49;;;;;;;9.95;1.30;;;;;;;;;;4815958;29;20034;-84
2022/08/13 12:06:18;;;;;;;3.35;1.20;;;;;;;;;;4804677;29;20178;-82
2022/08/13 12:08:44;;;;;;;2.70;1.00;;;;;;;;;;4810015;29;20104;-83
2022/08/13 12:11:10;;;;;;;1.95;1.27;;;;;;;;;;4804462;29;20055;-82
2022/08/13 12:13:39;;;;;;;3.58;1.73;;;;;;;;;;4793352;29;20106;-82
2022/08/13 12:16:05;;;;;;;6.95;1.27;;;;;;;;;;4814958;29;20521;-81
2022/08/13 12:18:32;;;;;;;2.17;1.20;;;;;;;;;;4819621;29;20515;-81
2022/08/13 12:20:58;;;;;;;1.92;1.00;;;;;;;;;;4828637;29;20464;-83
2022/08/13 12:23:24;;;;;;;5.85;1.30;;;;;;;;;;4820491;29;20050;-83
2022/08/13 12:25:54;;;;;;;4.30;1.10;;;;;;;;;;4813855;29;20081;-81
2022/08/13 12:28:25;;;;;;;3.28;1.20;;;;;;;;;;4817860;29;20057;-84
2022/08/13 12:31:09;;;;;;;8.15;1.17;;;;;;;;;;4820637;29;20050;-82
2022/08/13 12:33:37;;;;;;;2.05;1.10;;;;;;;;;;4809981;29;20039;-84
2022/08/13 12:36:10;;;;;;;1.63;1.15;;;;;;;;;;4822443;29;20054;-82
2022/08/13 12:38:42;;;;;;;2.85;1.27;;;;;;;;;;4819598;29;20491;-83
2022/08/13 12:41:09;;;;;;;0.93;0.93;;;;;;;;;;4809827;29;20073;-84
2022/08/13 12:43:35;;;;;;;4.25;1.20;;;;;;;;;;4831748;29;20082;-83
2022/08/13 12:46:01;;;;;;;2.50;1.20;;;;;;;;;;4824498;29;20061;-80
2022/08/13 12:48:31;;;;;;;2.92;1.40;;;;;;;;;;4794968;29;20098;-85
2022/08/13 12:50:57;;;;;;;1.95;1.23;;;;;;;;;;4823340;29;20047;-85
2022/08/13 12:53:35;;;;;;;4.18;1.30;;;;;;;;;;4805626;29;20074;-84
2022/08/13 12:56:05;;;;;;;5.32;1.48;;;;;;;;;;4820208;29;20046;-84
2022/08/13 12:58:31;;;;;;;3.35;1.30;;;;;;;;;;4835473;29;20043;-84
2022/08/13 13:01:02;;;;;;;2.13;1.20;;;;;;;;;;4826978;29;20058;-85
2022/08/13 13:03:29;;;;;;;3.80;1.10;;;;;;;;;;4805496;29;20065;-85
2022/08/13 13:05:55;;;;;;;3.63;1.25;;;;;;;;;;4825369;29;20046;-84
2022/08/13 13:08:32;;;;;;;1.45;1.17;;;;;;;;;;4813163;29;20569;-84
2022/08/13 13:11:03;;;;;;;2.72;1.88;;;;;;;;;;4828426;29;20410;-81
2022/08/13 13:13:30;;;;;;;1.63;1.13;;;;;;;;;;4808336;29;20062;-83
2022/08/13 13:15:58;;;;;;;6.22;1.40;;;;;;;;;;4821214;29;20069;-84
2022/08/13 13:18:34;;;;;;;3.20;1.40;;;;;;;;;;4820285;29;20106;-85
2022/08/13 13:21:06;;;;;;;2.67;1.50;;;;;;;;;;4802881;29;20089;-84
2022/08/13 13:23:35;;;;;;;3.85;1.50;;;;;;;;;;4824144;29;20187;-83
2022/08/13 13:26:01;;;;;;;3.25;1.15;;;;;;;;;;4811187;29;20113;-83
2022/08/13 13:28:31;;;;;;;2.03;1.27;;;;;;;;;;4828226;29;20115;-81
2022/08/13 13:30:58;;;;;;;2.53;1.40;;;;;;;;;;4812524;29;20447;-82
2022/08/13 13:33:27;;;;;;;4.32;1.10;;;;;;;;;;4826998;29;20570;-83
2022/08/13 13:35:57;;;;;;;4.70;1.30;;;;;;;;;;4832881;29;20059;-82
2022/08/13 13:38:24;;;;;;;2.45;1.30;;;;;;;;;;4816635;29;20085;-83
2022/08/13 13:41:08;;;;;;;5.68;1.33;;;;;;;;;;4825205;29;20152;-83
2022/08/13 13:43:35;;;;;;;3.00;1.20;;;;;;;;;;4830024;29;20198;-84
2022/08/13 13:46:05;;;;;;;3.78;1.40;;;;;;;;;;4825589;29;20142;-82
2022/08/13 13:48:33;;;;;;;3.33;1.23;;;;;;;;;;4821144;29;20065;-84
2022/08/13 13:51:00;;;;;;;2.67;1.15;;;;;;;;;;4830225;29;20062;-85
2022/08/13 13:53:37;;;;;;;4.28;1.15;;;;;;;;;;4807838;29;20062;-82
2022/08/13 13:56:05;;;;;;;5.70;1.20;;;;;;;;;;4824780;29;20105;-85
2022/08/13 13:58:32;;;;;;;2.17;1.20;;;;;;;;;;4814471;29;20124;-83
2022/08/13 14:01:11;;;;;;;2.58;1.60;;;;;;;;;;4818399;29;20441;-83
2022/08/13 14:03:37;;;;;;;3.05;1.35;;;;;;;;;;4805949;29;20046;-83
2022/08/13 14:06:33;;;;;;;5.38;1.20;;;;;;;;;;4805300;29;20096;-83
2022/08/13 14:08:59;;;;;;;4.00;1.27;;;;;;;;;;4797121;29;20429;-81
2022/08/13 14:11:26;;;;;;;1.45;1.30;;;;;;;;;;4801974;29;20055;-82
2022/08/13 14:14:17;;;;;;;2.03;1.10;;;;;;;;;;4812626;29;20046;-82
2022/08/13 14:16:53;;;;;;;4.15;1.50;;;;;;;;;;4814975;29;20075;-85
2022/08/13 14:19:22;;;;;;;1.30;1.17;;;;;;;;;;4820777;29;20069;-85
2022/08/13 14:21:52;;;;;;;3.15;1.42;;;;;;;;;;4810333;29;20054;-83
2022/08/13 14:24:19;;;;;;;1.50;1.40;;;;;;;;;;4834869;29;20928;-85
2022/08/13 14:27:19;;;;;;;8.20;1.30;;;;;;;;;;4819819;29;20446;-83
2022/08/13 14:29:45;;;;;;;2.88;1.40;;;;;;;;;;4819797;29;20499;-82
2022/08/13 14:32:11;;;;;;;2.47;1.10;;;;;;;;;;4819748;29;20053;-83
2022/08/13 14:34:37;;;;;;;5.38;1.20;;;;;;;;;;4817537;29;20403;-84
2022/08/13 14:37:16;;;;;;;2.28;1.13;;;;;;;;;;4825376;29;20100;-83
2022/08/13 14:39:42;;;;;;;2.55;1.27;;;;;;;;;;4807733;29;20041;-84
2022/08/13 14:42:08;;;;;;;3.42;1.30;;;;;;;;;;4812514;29;20569;-82
2022/08/13 14:44:34;;;;;;;5.72;1.20;;;;;;;;;;4788783;29;20509;-81
2022/08/13 14:47:00;;;;;;;4.10;1.05;;;;;;;;;;4792630;29;20072;-81
2022/08/13 14:49:27;;;;;;;2.15;1.10;;;;;;;;;;4787826;29;20047;-84
2022/08/13 14:52:37;;;;;;;3.92;1.13;;;35.40;93.30;;;;;;4789410;29;20095;-84
2022/08/13 14:55:13;;;;;;;3.63;1.40;;;;;;;;;;4791180;29;20127;-83
2022/08/13 14:57:48;;;;;;;2.53;1.50;;;;;;;;;;4797873;29;20082;-83
2022/08/13 15:00:14;;;;;;;6.65;1.15;;;;;;;;;;4786696;29;20052;-81
2022/08/13 15:02:41;;;;;;;1.75;1.20;;;;;;;;;;4791968;29;20492;-84
2022/08/13 15:05:09;;;;;;;3.80;1.50;;;;;;;;;;4788153;29;20183;-82
2022/08/13 15:07:45;;;;;;;5.72;1.35;;;;;;;;;;4800093;29;20135;-81
2022/08/13 15:10:16;;;;;;;1.73;1.08;;;;;;;;;;4800987;29;20147;-84
2022/08/13 15:12:42;;;;;;;2.97;1.27;;;;;;;;;;4792980;29;20404;-81
2022/08/13 15:15:09;;;;;;;3.75;1.25;;;;;;;;;;4789417;29;20051;-84
2022/08/13 15:17:43;;;;;;;4.53;1.20;;;;;;;;;;4796843;29;20058;-82
2022/08/13 15:20:11;;;;;;;4.78;1.20;;;;;;;;;;4793393;29;20059;-85